sensor_id;sensor_type;location;lat;lon;timestamp;P1;durP1;ratioP1;P2;durP2;ratioP2
55575;SDS011;41437;45.478;9.116;2022-11-10T00:00:34;49.28;;;38.67;;
55575;SDS011;41437;45.478;9.116;2022-11-10T00:03:37;50.22;;;39.47;;
55575;SDS011;41437;45.478;9.116;2022-11-10T00:06:39;50.65;;;40.03;;
55575;SDS011;41437;45.478;9.116;2022-11-10T00:09:42;49.33;;;38.88;;
55575;SDS011;41437;45.478;9.116;2022-11-10T00:12:44;49.30;;;39.60;;
55575;SDS011;41437;45.478;9.116;2022-11-10T00:15:45;45.95;;;37.78;;
55575;SDS011;41437;45.478;9.116;2022-11-10T00:19:04;46.95;;;37.22;;
55575;SDS011;41437;45.478;9.116;2022-11-10T00:22:06;39.15;;;32.72;;
55575;SDS011;41437;45.478;9.116;2022-11-10T00:25:09;41.85;;;33.53;;
55575;SDS011;41437;45.478;9.116;2022-11-10T00:28:11;39.30;;;31.98;;
55575;SDS011;41437;45.478;9.116;2022-11-10T00:31:13;32.60;;;29.08;;
55575;SDS011;41437;45.478;9.116;2022-11-10T00:34:15;32.38;;;28.35;;
55575;SDS011;41437;45.478;9.116;2022-11-10T00:40:21;30.60;;;27.35;;
55575;SDS011;41437;45.478;9.116;2022-11-10T00:43:23;30.17;;;25.70;;
55575;SDS011;41437;45.478;9.116;2022-11-10T00:46:25;32.40;;;28.02;;
55575;SDS011;41437;45.478;9.116;2022-11-10T00:49:26;33.50;;;28.65;;
55575;SDS011;41437;45.478;9.116;2022-11-10T00:52:28;32.97;;;29.38;;
55575;SDS011;41437;45.478;9.116;2022-11-10T00:55:31;31.13;;;27.05;;
55575;SDS011;41437;45.478;9.116;2022-11-10T00:58:32;30.00;;;26.70;;
55575;SDS011;41437;45.478;9.116;2022-11-10T01:01:34;29.75;;;26.08;;
55575;SDS011;41437;45.478;9.116;2022-11-10T01:04:35;28.88;;;25.35;;
55575;SDS011;41437;45.478;9.116;2022-11-10T01:07:37;29.83;;;25.98;;
55575;SDS011;41437;45.478;9.116;2022-11-10T01:10:40;28.48;;;24.58;;
55575;SDS011;41437;45.478;9.116;2022-11-10T01:13:41;29.65;;;26.08;;
55575;SDS011;41437;45.478;9.116;2022-11-10T01:16:43;29.67;;;25.92;;
55575;SDS011;41437;45.478;9.116;2022-11-10T01:19:48;30.83;;;26.80;;
55575;SDS011;41437;45.478;9.116;2022-11-10T01:22:49;33.28;;;27.63;;
55575;SDS011;41437;45.478;9.116;2022-11-10T01:25:55;34.22;;;27.25;;
55575;SDS011;41437;45.478;9.116;2022-11-10T01:28:57;37.30;;;29.52;;
55575;SDS011;41437;45.478;9.116;2022-11-10T01:31:59;39.03;;;29.58;;
55575;SDS011;41437;45.478;9.116;2022-11-10T01:35:00;37.03;;;29.55;;
55575;SDS011;41437;45.478;9.116;2022-11-10T01:38:02;39.05;;;30.27;;
55575;SDS011;41437;45.478;9.116;2022-11-10T01:41:05;37.72;;;29.55;;
55575;SDS011;41437;45.478;9.116;2022-11-10T01:44:13;41.45;;;31.80;;
55575;SDS011;41437;45.478;9.116;2022-11-10T01:47:17;40.03;;;30.85;;
55575;SDS011;41437;45.478;9.116;2022-11-10T01:50:19;40.08;;;31.20;;
55575;SDS011;41437;45.478;9.116;2022-11-10T01:53:22;42.78;;;32.20;;
55575;SDS011;41437;45.478;9.116;2022-11-10T01:56:29;44.58;;;31.50;;
55575;SDS011;41437;45.478;9.116;2022-11-10T01:59:37;45.22;;;32.63;;
55575;SDS011;41437;45.478;9.116;2022-11-10T02:02:41;47.40;;;33.38;;
55575;SDS011;41437;45.478;9.116;2022-11-10T02:05:47;43.35;;;31.60;;
55575;SDS011;41437;45.478;9.116;2022-11-10T02:08:50;48.90;;;33.78;;
55575;SDS011;41437;45.478;9.116;2022-11-10T02:11:57;47.53;;;31.60;;
55575;SDS011;41437;45.478;9.116;2022-11-10T02:14:58;51.13;;;33.03;;
55575;SDS011;41437;45.478;9.116;2022-11-10T02:18:00;52.05;;;33.63;;
55575;SDS011;41437;45.478;9.116;2022-11-10T02:21:03;50.97;;;33.08;;
55575;SDS011;41437;45.478;9.116;2022-11-10T02:24:06;50.17;;;33.40;;
55575;SDS011;41437;45.478;9.116;2022-11-10T02:27:08;55.17;;;35.10;;
55575;SDS011;41437;45.478;9.116;2022-11-10T02:30:10;57.30;;;37.25;;
55575;SDS011;41437;45.478;9.116;2022-11-10T02:33:14;56.90;;;35.70;;
55575;SDS011;41437;45.478;9.116;2022-11-10T02:39:20;60.45;;;37.67;;
55575;SDS011;41437;45.478;9.116;2022-11-10T02:42:22;59.60;;;38.60;;
55575;SDS011;41437;45.478;9.116;2022-11-10T02:45:24;58.92;;;38.60;;
55575;SDS011;41437;45.478;9.116;2022-11-10T02:48:25;54.20;;;35.83;;
55575;SDS011;41437;45.478;9.116;2022-11-10T02:51:28;56.85;;;36.50;;
55575;SDS011;41437;45.478;9.116;2022-11-10T02:54:30;54.78;;;36.33;;
55575;SDS011;41437;45.478;9.116;2022-11-10T02:57:31;53.08;;;35.63;;
55575;SDS011;41437;45.478;9.116;2022-11-10T03:00:33;51.03;;;35.60;;
55575;SDS011;41437;45.478;9.116;2022-11-10T03:03:35;51.20;;;35.45;;
55575;SDS011;41437;45.478;9.116;2022-11-10T03:06:38;47.97;;;33.67;;
55575;SDS011;41437;45.478;9.116;2022-11-10T03:09:39;44.65;;;34.80;;
55575;SDS011;41437;45.478;9.116;2022-11-10T03:12:41;47.28;;;33.65;;
55575;SDS011;41437;45.478;9.116;2022-11-10T03:15:43;43.30;;;31.20;;
55575;SDS011;41437;45.478;9.116;2022-11-10T03:18:44;40.45;;;31.60;;
55575;SDS011;41437;45.478;9.116;2022-11-10T03:21:47;42.88;;;31.60;;
55575;SDS011;41437;45.478;9.116;2022-11-10T03:24:49;45.85;;;33.15;;
55575;SDS011;41437;45.478;9.116;2022-11-10T03:27:53;41.53;;;31.75;;
55575;SDS011;41437;45.478;9.116;2022-11-10T03:30:55;42.45;;;32.08;;
55575;SDS011;41437;45.478;9.116;2022-11-10T03:33:57;42.65;;;32.13;;
55575;SDS011;41437;45.478;9.116;2022-11-10T03:36:59;41.53;;;30.30;;
55575;SDS011;41437;45.478;9.116;2022-11-10T03:40:01;45.25;;;33.40;;
55575;SDS011;41437;45.478;9.116;2022-11-10T03:43:03;51.13;;;34.45;;
55575;SDS011;41437;45.478;9.116;2022-11-10T03:46:04;52.20;;;35.63;;
55575;SDS011;41437;45.478;9.116;2022-11-10T03:49:08;51.63;;;36.65;;
55575;SDS011;41437;45.478;9.116;2022-11-10T03:52:11;49.17;;;34.72;;
55575;SDS011;41437;45.478;9.116;2022-11-10T03:55:13;53.08;;;35.33;;
55575;SDS011;41437;45.478;9.116;2022-11-10T03:58:16;49.88;;;34.58;;
55575;SDS011;41437;45.478;9.116;2022-11-10T04:01:18;51.33;;;35.17;;
55575;SDS011;41437;45.478;9.116;2022-11-10T04:04:19;50.97;;;34.22;;
55575;SDS011;41437;45.478;9.116;2022-11-10T04:07:40;50.05;;;35.63;;
55575;SDS011;41437;45.478;9.116;2022-11-10T04:10:59;47.38;;;34.47;;
55575;SDS011;41437;45.478;9.116;2022-11-10T04:14:01;52.20;;;36.67;;
55575;SDS011;41437;45.478;9.116;2022-11-10T04:17:20;52.60;;;34.72;;
55575;SDS011;41437;45.478;9.116;2022-11-10T04:20:22;46.83;;;33.72;;
55575;SDS011;41437;45.478;9.116;2022-11-10T04:23:25;51.15;;;35.90;;
55575;SDS011;41437;45.478;9.116;2022-11-10T04:26:29;53.63;;;35.90;;
55575;SDS011;41437;45.478;9.116;2022-11-10T04:29:32;50.78;;;35.47;;
55575;SDS011;41437;45.478;9.116;2022-11-10T04:32:34;54.90;;;37.85;;
55575;SDS011;41437;45.478;9.116;2022-11-10T04:35:39;53.13;;;37.00;;
55575;SDS011;41437;45.478;9.116;2022-11-10T04:38:42;53.58;;;36.60;;
55575;SDS011;41437;45.478;9.116;2022-11-10T04:41:44;52.95;;;36.75;;
55575;SDS011;41437;45.478;9.116;2022-11-10T04:44:46;54.90;;;36.75;;
55575;SDS011;41437;45.478;9.116;2022-11-10T04:47:47;50.33;;;34.05;;
55575;SDS011;41437;45.478;9.116;2022-11-10T04:50:49;52.67;;;35.70;;
55575;SDS011;41437;45.478;9.116;2022-11-10T04:53:52;60.95;;;37.28;;
55575;SDS011;41437;45.478;9.116;2022-11-10T04:56:54;50.42;;;34.20;;
55575;SDS011;41437;45.478;9.116;2022-11-10T04:59:55;60.53;;;37.47;;
55575;SDS011;41437;45.478;9.116;2022-11-10T05:02:57;54.30;;;36.05;;
55575;SDS011;41437;45.478;9.116;2022-11-10T05:06:00;54.10;;;35.38;;
55575;SDS011;41437;45.478;9.116;2022-11-10T05:09:03;55.22;;;35.40;;
55575;SDS011;41437;45.478;9.116;2022-11-10T05:12:05;57.38;;;37.70;;
55575;SDS011;41437;45.478;9.116;2022-11-10T05:15:07;56.60;;;37.20;;
55575;SDS011;41437;45.478;9.116;2022-11-10T05:18:09;55.47;;;34.83;;
55575;SDS011;41437;45.478;9.116;2022-11-10T05:21:10;57.67;;;38.75;;
55575;SDS011;41437;45.478;9.116;2022-11-10T05:24:13;59.80;;;38.25;;
55575;SDS011;41437;45.478;9.116;2022-11-10T05:27:15;60.95;;;39.22;;
55575;SDS011;41437;45.478;9.116;2022-11-10T05:30:17;65.43;;;40.47;;
55575;SDS011;41437;45.478;9.116;2022-11-10T05:33:18;61.30;;;39.10;;
55575;SDS011;41437;45.478;9.116;2022-11-10T05:36:20;62.13;;;40.15;;
55575;SDS011;41437;45.478;9.116;2022-11-10T05:39:23;65.57;;;40.20;;
55575;SDS011;41437;45.478;9.116;2022-11-10T05:42:24;64.63;;;40.33;;
55575;SDS011;41437;45.478;9.116;2022-11-10T05:45:27;61.67;;;39.75;;
55575;SDS011;41437;45.478;9.116;2022-11-10T05:48:29;62.97;;;39.90;;
55575;SDS011;41437;45.478;9.116;2022-11-10T05:51:30;67.55;;;40.30;;
55575;SDS011;41437;45.478;9.116;2022-11-10T05:54:33;71.05;;;42.08;;
55575;SDS011;41437;45.478;9.116;2022-11-10T05:57:35;66.32;;;40.42;;
55575;SDS011;41437;45.478;9.116;2022-11-10T06:00:36;64.75;;;40.53;;
55575;SDS011;41437;45.478;9.116;2022-11-10T06:03:38;62.35;;;39.20;;
55575;SDS011;41437;45.478;9.116;2022-11-10T06:06:42;66.72;;;39.67;;
55575;SDS011;41437;45.478;9.116;2022-11-10T06:09:45;69.57;;;41.80;;
55575;SDS011;41437;45.478;9.116;2022-11-10T06:12:47;64.87;;;41.37;;
55575;SDS011;41437;45.478;9.116;2022-11-10T06:15:51;71.15;;;41.70;;
55575;SDS011;41437;45.478;9.116;2022-11-10T06:18:53;73.57;;;41.65;;
55575;SDS011;41437;45.478;9.116;2022-11-10T06:21:54;67.38;;;39.95;;
55575;SDS011;41437;45.478;9.116;2022-11-10T06:24:57;66.85;;;39.85;;
55575;SDS011;41437;45.478;9.116;2022-11-10T06:28:01;69.90;;;41.25;;
55575;SDS011;41437;45.478;9.116;2022-11-10T06:34:07;63.95;;;40.05;;
55575;SDS011;41437;45.478;9.116;2022-11-10T06:37:09;60.65;;;37.15;;
55575;SDS011;41437;45.478;9.116;2022-11-10T06:40:12;63.58;;;39.25;;
55575;SDS011;41437;45.478;9.116;2022-11-10T06:43:14;62.15;;;39.58;;
55575;SDS011;41437;45.478;9.116;2022-11-10T06:46:17;62.85;;;39.47;;
55575;SDS011;41437;45.478;9.116;2022-11-10T06:49:19;56.35;;;37.30;;
55575;SDS011;41437;45.478;9.116;2022-11-10T06:52:20;63.05;;;38.88;;
55575;SDS011;41437;45.478;9.116;2022-11-10T06:55:26;57.42;;;36.45;;
55575;SDS011;41437;45.478;9.116;2022-11-10T06:58:28;63.42;;;39.10;;
55575;SDS011;41437;45.478;9.116;2022-11-10T07:01:30;64.63;;;38.60;;
55575;SDS011;41437;45.478;9.116;2022-11-10T07:04:31;66.93;;;39.40;;
55575;SDS011;41437;45.478;9.116;2022-11-10T07:07:33;63.72;;;38.20;;
55575;SDS011;41437;45.478;9.116;2022-11-10T07:10:36;60.63;;;38.38;;
55575;SDS011;41437;45.478;9.116;2022-11-10T07:13:37;64.30;;;39.65;;
55575;SDS011;41437;45.478;9.116;2022-11-10T07:16:39;67.03;;;38.92;;
55575;SDS011;41437;45.478;9.116;2022-11-10T07:19:41;61.42;;;38.50;;
55575;SDS011;41437;45.478;9.116;2022-11-10T07:22:42;63.95;;;40.80;;
55575;SDS011;41437;45.478;9.116;2022-11-10T07:25:45;65.45;;;40.28;;
55575;SDS011;41437;45.478;9.116;2022-11-10T07:28:47;66.55;;;39.47;;
55575;SDS011;41437;45.478;9.116;2022-11-10T07:31:48;70.93;;;40.75;;
55575;SDS011;41437;45.478;9.116;2022-11-10T07:34:50;70.68;;;41.92;;
55575;SDS011;41437;45.478;9.116;2022-11-10T07:37:53;66.35;;;40.88;;
55575;SDS011;41437;45.478;9.116;2022-11-10T07:40:56;71.72;;;41.15;;
55575;SDS011;41437;45.478;9.116;2022-11-10T07:43:58;74.00;;;42.30;;
55575;SDS011;41437;45.478;9.116;2022-11-10T07:46:59;72.35;;;41.95;;
55575;SDS011;41437;45.478;9.116;2022-11-10T07:50:01;73.97;;;41.53;;
55575;SDS011;41437;45.478;9.116;2022-11-10T07:53:04;68.57;;;40.85;;
55575;SDS011;41437;45.478;9.116;2022-11-10T07:56:07;70.73;;;41.80;;
55575;SDS011;41437;45.478;9.116;2022-11-10T07:59:09;77.40;;;42.67;;
55575;SDS011;41437;45.478;9.116;2022-11-10T08:02:11;77.63;;;43.08;;
55575;SDS011;41437;45.478;9.116;2022-11-10T08:05:12;81.30;;;45.45;;
55575;SDS011;41437;45.478;9.116;2022-11-10T08:08:15;74.03;;;42.55;;
55575;SDS011;41437;45.478;9.116;2022-11-10T08:11:18;76.55;;;44.72;;
55575;SDS011;41437;45.478;9.116;2022-11-10T08:14:20;79.15;;;43.70;;
55575;SDS011;41437;45.478;9.116;2022-11-10T08:17:22;80.45;;;45.25;;
55575;SDS011;41437;45.478;9.116;2022-11-10T08:20:24;73.07;;;43.50;;
55575;SDS011;41437;45.478;9.116;2022-11-10T08:23:26;68.18;;;41.90;;
55575;SDS011;41437;45.478;9.116;2022-11-10T08:26:29;68.72;;;42.17;;
55575;SDS011;41437;45.478;9.116;2022-11-10T08:29:32;68.80;;;42.25;;
55575;SDS011;41437;45.478;9.116;2022-11-10T08:32:35;65.20;;;41.10;;
55575;SDS011;41437;45.478;9.116;2022-11-10T08:35:40;65.30;;;40.28;;
55575;SDS011;41437;45.478;9.116;2022-11-10T08:38:43;64.82;;;41.65;;
55575;SDS011;41437;45.478;9.116;2022-11-10T08:41:46;62.70;;;38.17;;
55575;SDS011;41437;45.478;9.116;2022-11-10T08:44:47;61.55;;;38.80;;
55575;SDS011;41437;45.478;9.116;2022-11-10T08:47:54;57.17;;;36.47;;
55575;SDS011;41437;45.478;9.116;2022-11-10T08:50:58;64.45;;;40.15;;
55575;SDS011;41437;45.478;9.116;2022-11-10T08:54:00;59.08;;;38.38;;
55575;SDS011;41437;45.478;9.116;2022-11-10T08:57:04;58.65;;;38.30;;
55575;SDS011;41437;45.478;9.116;2022-11-10T09:00:07;58.30;;;38.43;;
55575;SDS011;41437;45.478;9.116;2022-11-10T09:03:11;56.05;;;37.28;;
55575;SDS011;41437;45.478;9.116;2022-11-10T09:06:13;61.28;;;38.72;;
55575;SDS011;41437;45.478;9.116;2022-11-10T09:09:15;55.70;;;37.53;;
55575;SDS011;41437;45.478;9.116;2022-11-10T09:12:18;59.42;;;37.92;;
55575;SDS011;41437;45.478;9.116;2022-11-10T09:15:20;51.95;;;34.47;;
55575;SDS011;41437;45.478;9.116;2022-11-10T09:18:21;51.42;;;34.40;;
55575;SDS011;41437;45.478;9.116;2022-11-10T09:21:23;58.03;;;37.70;;
55575;SDS011;41437;45.478;9.116;2022-11-10T09:24:24;58.63;;;36.53;;
55575;SDS011;41437;45.478;9.116;2022-11-10T09:27:27;56.78;;;36.85;;
55575;SDS011;41437;45.478;9.116;2022-11-10T09:30:35;62.45;;;37.45;;
55575;SDS011;41437;45.478;9.116;2022-11-10T09:33:36;57.28;;;35.42;;
55575;SDS011;41437;45.478;9.116;2022-11-10T09:36:38;53.90;;;35.85;;
55575;SDS011;41437;45.478;9.116;2022-11-10T09:39:39;55.78;;;35.90;;
55575;SDS011;41437;45.478;9.116;2022-11-10T09:42:42;59.60;;;37.72;;
55575;SDS011;41437;45.478;9.116;2022-11-10T09:45:47;61.42;;;38.38;;
55575;SDS011;41437;45.478;9.116;2022-11-10T09:48:54;51.95;;;34.65;;
55575;SDS011;41437;45.478;9.116;2022-11-10T09:51:59;55.60;;;36.35;;
55575;SDS011;41437;45.478;9.116;2022-11-10T09:55:05;55.20;;;35.53;;
55575;SDS011;41437;45.478;9.116;2022-11-10T09:58:24;56.20;;;35.97;;
55575;SDS011;41437;45.478;9.116;2022-11-10T10:01:32;49.25;;;32.42;;
55575;SDS011;41437;45.478;9.116;2022-11-10T10:04:43;47.58;;;31.55;;
55575;SDS011;41437;45.478;9.116;2022-11-10T10:07:59;51.03;;;35.38;;
55575;SDS011;41437;45.478;9.116;2022-11-10T10:11:04;48.92;;;33.92;;
55575;SDS011;41437;45.478;9.116;2022-11-10T10:14:26;53.47;;;34.75;;
55575;SDS011;41437;45.478;9.116;2022-11-10T10:17:45;50.67;;;34.90;;
55575;SDS011;41437;45.478;9.116;2022-11-10T10:21:05;51.95;;;33.45;;
55575;SDS011;41437;45.478;9.116;2022-11-10T10:24:18;52.50;;;33.63;;
55575;SDS011;41437;45.478;9.116;2022-11-10T10:27:23;48.75;;;33.42;;
55575;SDS011;41437;45.478;9.116;2022-11-10T10:30:29;51.42;;;34.50;;
55575;SDS011;41437;45.478;9.116;2022-11-10T10:33:30;51.97;;;33.83;;
55575;SDS011;41437;45.478;9.116;2022-11-10T10:36:35;52.53;;;34.50;;
55575;SDS011;41437;45.478;9.116;2022-11-10T10:39:39;50.50;;;34.03;;
55575;SDS011;41437;45.478;9.116;2022-11-10T10:42:44;45.88;;;32.00;;
55575;SDS011;41437;45.478;9.116;2022-11-10T10:46:01;49.92;;;33.22;;
55575;SDS011;41437;45.478;9.116;2022-11-10T10:49:07;51.67;;;33.15;;
55575;SDS011;41437;45.478;9.116;2022-11-10T10:52:14;49.33;;;33.45;;
55575;SDS011;41437;45.478;9.116;2022-11-10T10:55:17;50.13;;;33.25;;
55575;SDS011;41437;45.478;9.116;2022-11-10T10:58:20;48.92;;;33.92;;
55575;SDS011;41437;45.478;9.116;2022-11-10T11:01:27;49.15;;;32.88;;
55575;SDS011;41437;45.478;9.116;2022-11-10T11:04:31;55.92;;;34.67;;
55575;SDS011;41437;45.478;9.116;2022-11-10T11:07:34;48.35;;;32.92;;
55575;SDS011;41437;45.478;9.116;2022-11-10T11:10:36;50.60;;;33.47;;
55575;SDS011;41437;45.478;9.116;2022-11-10T11:13:46;51.40;;;34.00;;
55575;SDS011;41437;45.478;9.116;2022-11-10T11:16:50;51.10;;;35.72;;
55575;SDS011;41437;45.478;9.116;2022-11-10T11:19:53;50.83;;;34.05;;
55575;SDS011;41437;45.478;9.116;2022-11-10T11:22:55;50.28;;;35.22;;
55575;SDS011;41437;45.478;9.116;2022-11-10T11:26:05;44.65;;;32.50;;
55575;SDS011;41437;45.478;9.116;2022-11-10T11:29:16;45.97;;;33.10;;
55575;SDS011;41437;45.478;9.116;2022-11-10T11:32:55;46.63;;;32.42;;
55575;SDS011;41437;45.478;9.116;2022-11-10T11:36:16;52.30;;;34.78;;
55575;SDS011;41437;45.478;9.116;2022-11-10T11:39:29;52.58;;;34.22;;
55575;SDS011;41437;45.478;9.116;2022-11-10T11:42:43;49.92;;;33.78;;
55575;SDS011;41437;45.478;9.116;2022-11-10T11:45:58;27.60;;;18.70;;
55575;SDS011;41437;45.478;9.116;2022-11-10T11:49:19;32.75;;;21.02;;
55575;SDS011;41437;45.478;9.116;2022-11-10T11:52:32;36.70;;;24.23;;
55575;SDS011;41437;45.478;9.116;2022-11-10T11:55:42;40.97;;;30.33;;
55575;SDS011;41437;45.478;9.116;2022-11-10T11:59:01;43.25;;;31.30;;
55575;SDS011;41437;45.478;9.116;2022-11-10T12:02:23;44.63;;;32.85;;
55575;SDS011;41437;45.478;9.116;2022-11-10T12:05:58;46.45;;;32.38;;
55575;SDS011;41437;45.478;9.116;2022-11-10T12:09:16;44.05;;;31.38;;
55575;SDS011;41437;45.478;9.116;2022-11-10T12:12:30;44.13;;;31.38;;
55575;SDS011;41437;45.478;9.116;2022-11-10T12:15:48;47.55;;;33.25;;
55575;SDS011;41437;45.478;9.116;2022-11-10T12:18:56;44.92;;;31.63;;
55575;SDS011;41437;45.478;9.116;2022-11-10T12:22:12;49.70;;;31.23;;
55575;SDS011;41437;45.478;9.116;2022-11-10T12:25:26;46.97;;;32.17;;
55575;SDS011;41437;45.478;9.116;2022-11-10T12:28:35;46.00;;;32.67;;
55575;SDS011;41437;45.478;9.116;2022-11-10T12:31:42;44.35;;;31.50;;
55575;SDS011;41437;45.478;9.116;2022-11-10T12:34:47;41.63;;;30.65;;
55575;SDS011;41437;45.478;9.116;2022-11-10T12:37:56;46.80;;;32.78;;
55575;SDS011;41437;45.478;9.116;2022-11-10T12:41:02;48.00;;;32.85;;
55575;SDS011;41437;45.478;9.116;2022-11-10T12:44:11;47.20;;;33.00;;
55575;SDS011;41437;45.478;9.116;2022-11-10T12:47:21;44.97;;;31.00;;
55575;SDS011;41437;45.478;9.116;2022-11-10T12:53:52;46.35;;;32.97;;
55575;SDS011;41437;45.478;9.116;2022-11-10T12:56:54;42.43;;;31.40;;
55575;SDS011;41437;45.478;9.116;2022-11-10T13:00:00;44.30;;;31.58;;
55575;SDS011;41437;45.478;9.116;2022-11-10T13:03:04;52.17;;;36.80;;
55575;SDS011;41437;45.478;9.116;2022-11-10T13:06:22;51.15;;;35.05;;
55575;SDS011;41437;45.478;9.116;2022-11-10T13:09:28;43.83;;;31.20;;
55575;SDS011;41437;45.478;9.116;2022-11-10T13:12:32;48.92;;;30.83;;
55575;SDS011;41437;45.478;9.116;2022-11-10T13:15:45;45.25;;;30.60;;
55575;SDS011;41437;45.478;9.116;2022-11-10T13:18:52;43.33;;;29.92;;
55575;SDS011;41437;45.478;9.116;2022-11-10T13:25:51;42.22;;;30.52;;
55575;SDS011;41437;45.478;9.116;2022-11-10T13:28:59;44.88;;;29.88;;
55575;SDS011;41437;45.478;9.116;2022-11-10T13:38:54;39.63;;;29.80;;
55575;SDS011;41437;45.478;9.116;2022-11-10T13:42:01;44.53;;;30.55;;
55575;SDS011;41437;45.478;9.116;2022-11-10T13:45:26;40.95;;;30.30;;
55575;SDS011;41437;45.478;9.116;2022-11-10T13:48:37;40.60;;;30.37;;
55575;SDS011;41437;45.478;9.116;2022-11-10T13:52:00;40.67;;;29.80;;
55575;SDS011;41437;45.478;9.116;2022-11-10T13:55:12;39.15;;;28.73;;
55575;SDS011;41437;45.478;9.116;2022-11-10T13:58:24;44.25;;;29.95;;
55575;SDS011;41437;45.478;9.116;2022-11-10T14:01:28;40.08;;;29.77;;
55575;SDS011;41437;45.478;9.116;2022-11-10T14:04:38;47.17;;;32.78;;
55575;SDS011;41437;45.478;9.116;2022-11-10T14:07:42;46.80;;;31.33;;
55575;SDS011;41437;45.478;9.116;2022-11-10T14:10:47;50.25;;;30.55;;
55575;SDS011;41437;45.478;9.116;2022-11-10T14:13:54;87.22;;;35.17;;
55575;SDS011;41437;45.478;9.116;2022-11-10T14:16:59;46.17;;;31.83;;
55575;SDS011;41437;45.478;9.116;2022-11-10T14:20:02;51.00;;;33.47;;
55575;SDS011;41437;45.478;9.116;2022-11-10T14:23:04;47.83;;;32.42;;
55575;SDS011;41437;45.478;9.116;2022-11-10T14:26:10;47.83;;;31.85;;
55575;SDS011;41437;45.478;9.116;2022-11-10T14:29:19;47.67;;;32.72;;
55575;SDS011;41437;45.478;9.116;2022-11-10T14:32:31;49.95;;;32.67;;
55575;SDS011;41437;45.478;9.116;2022-11-10T14:35:34;79.00;;;35.42;;
55575;SDS011;41437;45.478;9.116;2022-11-10T14:38:44;53.78;;;34.17;;
55575;SDS011;41437;45.478;9.116;2022-11-10T14:41:46;49.70;;;34.47;;
55575;SDS011;41437;45.478;9.116;2022-11-10T14:45:04;52.15;;;35.28;;
55575;SDS011;41437;45.478;9.116;2022-11-10T14:48:11;57.35;;;37.53;;
55575;SDS011;41437;45.478;9.116;2022-11-10T14:51:18;60.70;;;38.40;;
55575;SDS011;41437;45.478;9.116;2022-11-10T14:54:20;66.25;;;42.45;;
55575;SDS011;41437;45.478;9.116;2022-11-10T14:57:25;64.75;;;41.20;;
55575;SDS011;41437;45.478;9.116;2022-11-10T15:00:28;57.08;;;38.85;;
55575;SDS011;41437;45.478;9.116;2022-11-10T15:03:35;60.13;;;40.25;;
55575;SDS011;41437;45.478;9.116;2022-11-10T15:09:47;308.45;;;57.75;;
55575;SDS011;41437;45.478;9.116;2022-11-10T15:13:04;279.77;;;58.65;;
55575;SDS011;41437;45.478;9.116;2022-11-10T15:16:25;251.93;;;54.80;;
55575;SDS011;41437;45.478;9.116;2022-11-10T15:19:28;152.48;;;46.83;;
55575;SDS011;41437;45.478;9.116;2022-11-10T15:22:32;92.10;;;45.08;;
55575;SDS011;41437;45.478;9.116;2022-11-10T15:25:36;70.15;;;44.83;;
55575;SDS011;41437;45.478;9.116;2022-11-10T15:28:40;66.43;;;44.00;;
55575;SDS011;41437;45.478;9.116;2022-11-10T15:31:44;64.32;;;41.55;;
55575;SDS011;41437;45.478;9.116;2022-11-10T15:34:46;72.33;;;44.23;;
55575;SDS011;41437;45.478;9.116;2022-11-10T15:37:56;70.87;;;43.23;;
55575;SDS011;41437;45.478;9.116;2022-11-10T15:41:08;77.88;;;45.97;;
55575;SDS011;41437;45.478;9.116;2022-11-10T15:44:13;69.82;;;44.13;;
55575;SDS011;41437;45.478;9.116;2022-11-10T15:47:17;72.70;;;42.95;;
55575;SDS011;41437;45.478;9.116;2022-11-10T15:50:19;65.90;;;41.67;;
55575;SDS011;41437;45.478;9.116;2022-11-10T15:53:23;69.47;;;41.28;;
55575;SDS011;41437;45.478;9.116;2022-11-10T15:56:27;68.10;;;41.08;;
55575;SDS011;41437;45.478;9.116;2022-11-10T15:59:29;69.60;;;40.58;;
55575;SDS011;41437;45.478;9.116;2022-11-10T16:02:32;70.75;;;42.15;;
55575;SDS011;41437;45.478;9.116;2022-11-10T16:05:33;68.20;;;42.07;;
55575;SDS011;41437;45.478;9.116;2022-11-10T16:08:39;66.05;;;40.92;;
55575;SDS011;41437;45.478;9.116;2022-11-10T16:11:41;63.90;;;38.97;;
55575;SDS011;41437;45.478;9.116;2022-11-10T16:14:45;72.45;;;40.25;;
55575;SDS011;41437;45.478;9.116;2022-11-10T16:17:50;63.08;;;37.90;;
55575;SDS011;41437;45.478;9.116;2022-11-10T16:20:52;68.73;;;40.37;;
55575;SDS011;41437;45.478;9.116;2022-11-10T16:23:54;61.45;;;37.20;;
55575;SDS011;41437;45.478;9.116;2022-11-10T16:26:56;64.20;;;38.40;;
55575;SDS011;41437;45.478;9.116;2022-11-10T16:29:58;67.20;;;38.58;;
55575;SDS011;41437;45.478;9.116;2022-11-10T16:33:01;64.65;;;38.95;;
55575;SDS011;41437;45.478;9.116;2022-11-10T16:36:03;63.60;;;38.17;;
55575;SDS011;41437;45.478;9.116;2022-11-10T16:39:08;67.55;;;38.78;;
55575;SDS011;41437;45.478;9.116;2022-11-10T16:42:12;68.90;;;40.42;;
55575;SDS011;41437;45.478;9.116;2022-11-10T16:45:14;62.60;;;37.45;;
55575;SDS011;41437;45.478;9.116;2022-11-10T16:48:20;62.90;;;37.92;;
55575;SDS011;41437;45.478;9.116;2022-11-10T16:51:26;64.28;;;39.55;;
55575;SDS011;41437;45.478;9.116;2022-11-10T16:54:29;62.25;;;37.88;;
55575;SDS011;41437;45.478;9.116;2022-11-10T16:57:31;67.55;;;38.10;;
55575;SDS011;41437;45.478;9.116;2022-11-10T17:00:33;64.50;;;38.38;;
55575;SDS011;41437;45.478;9.116;2022-11-10T17:03:36;66.35;;;40.00;;
55575;SDS011;41437;45.478;9.116;2022-11-10T17:06:43;66.18;;;39.47;;
55575;SDS011;41437;45.478;9.116;2022-11-10T17:09:45;65.60;;;39.50;;
55575;SDS011;41437;45.478;9.116;2022-11-10T17:12:46;64.65;;;40.13;;
55575;SDS011;41437;45.478;9.116;2022-11-10T17:15:48;65.40;;;37.90;;
55575;SDS011;41437;45.478;9.116;2022-11-10T17:18:52;62.00;;;38.65;;
55575;SDS011;41437;45.478;9.116;2022-11-10T17:21:55;62.15;;;37.40;;
55575;SDS011;41437;45.478;9.116;2022-11-10T17:24:57;59.80;;;36.83;;
55575;SDS011;41437;45.478;9.116;2022-11-10T17:27:58;62.30;;;38.47;;
55575;SDS011;41437;45.478;9.116;2022-11-10T17:31:00;59.97;;;36.90;;
55575;SDS011;41437;45.478;9.116;2022-11-10T17:34:04;59.33;;;35.50;;
55575;SDS011;41437;45.478;9.116;2022-11-10T17:37:07;61.97;;;36.87;;
55575;SDS011;41437;45.478;9.116;2022-11-10T17:40:14;59.75;;;34.58;;
55575;SDS011;41437;45.478;9.116;2022-11-10T17:43:18;58.53;;;35.90;;
55575;SDS011;41437;45.478;9.116;2022-11-10T17:46:21;57.33;;;35.60;;
55575;SDS011;41437;45.478;9.116;2022-11-10T17:49:24;58.60;;;35.97;;
55575;SDS011;41437;45.478;9.116;2022-11-10T17:52:25;72.40;;;40.20;;
55575;SDS011;41437;45.478;9.116;2022-11-10T17:55:27;70.25;;;39.13;;
55575;SDS011;41437;45.478;9.116;2022-11-10T17:58:29;70.03;;;39.25;;
55575;SDS011;41437;45.478;9.116;2022-11-10T18:01:33;65.60;;;38.70;;
55575;SDS011;41437;45.478;9.116;2022-11-10T18:04:36;62.47;;;37.20;;
55575;SDS011;41437;45.478;9.116;2022-11-10T18:07:38;60.63;;;36.15;;
55575;SDS011;41437;45.478;9.116;2022-11-10T18:10:40;60.13;;;36.58;;
55575;SDS011;41437;45.478;9.116;2022-11-10T18:16:45;62.95;;;36.92;;
55575;SDS011;41437;45.478;9.116;2022-11-10T18:19:48;61.97;;;36.92;;
55575;SDS011;41437;45.478;9.116;2022-11-10T18:22:49;59.55;;;36.03;;
55575;SDS011;41437;45.478;9.116;2022-11-10T18:25:51;62.97;;;36.03;;
55575;SDS011;41437;45.478;9.116;2022-11-10T18:28:52;59.20;;;36.38;;